sensor_id;sensor_type;location;lat;lon;timestamp;P1;durP1;ratioP1;P2;durP2;ratioP2
11185;SDS011;5649;52.422;13.754;2022-11-04T00:01:14;10.13;;;4.07;;
11185;SDS011;5649;52.422;13.754;2022-11-04T00:03:40;10.07;;;4.27;;
11185;SDS011;5649;52.422;13.754;2022-11-04T00:06:06;7.43;;;3.77;;
11185;SDS011;5649;52.422;13.754;2022-11-04T00:08:33;22.67;;;3.90;;
11185;SDS011;5649;52.422;13.754;2022-11-04T00:10:59;13.30;;;4.33;;
11185;SDS011;5649;52.422;13.754;2022-11-04T00:14:04;14.13;;;4.00;;
11185;SDS011;5649;52.422;13.754;2022-11-04T00:16:30;8.07;;;3.27;;
11185;SDS011;5649;52.422;13.754;2022-11-04T00:19:15;11.10;;;3.53;;
11185;SDS011;5649;52.422;13.754;2022-11-04T00:21:41;12.33;;;3.70;;
11185;SDS011;5649;52.422;13.754;2022-11-04T00:24:26;11.70;;;3.60;;
11185;SDS011;5649;52.422;13.754;2022-11-04T00:26:55;8.97;;;3.90;;
11185;SDS011;5649;52.422;13.754;2022-11-04T00:29:40;12.53;;;4.30;;
11185;SDS011;5649;52.422;13.754;2022-11-04T00:32:06;5.77;;;3.80;;
11185;SDS011;5649;52.422;13.754;2022-11-04T00:34:50;19.60;;;4.03;;
11185;SDS011;5649;52.422;13.754;2022-11-04T00:37:17;8.33;;;4.10;;
11185;SDS011;5649;52.422;13.754;2022-11-04T00:39:43;11.03;;;3.63;;
11185;SDS011;5649;52.422;13.754;2022-11-04T00:42:08;20.40;;;4.70;;
11185;SDS011;5649;52.422;13.754;2022-11-04T00:44:34;9.83;;;4.10;;
11185;SDS011;5649;52.422;13.754;2022-11-04T00:47:00;6.63;;;3.70;;
11185;SDS011;5649;52.422;13.754;2022-11-04T00:49:27;10.40;;;3.90;;
11185;SDS011;5649;52.422;13.754;2022-11-04T00:51:53;14.57;;;3.50;;
11185;SDS011;5649;52.422;13.754;2022-11-04T00:54:19;8.47;;;4.10;;
11185;SDS011;5649;52.422;13.754;2022-11-04T00:56:45;4.20;;;3.17;;
11185;SDS011;5649;52.422;13.754;2022-11-04T00:59:12;10.37;;;4.40;;
11185;SDS011;5649;52.422;13.754;2022-11-04T01:01:38;6.63;;;3.80;;
11185;SDS011;5649;52.422;13.754;2022-11-04T01:04:05;6.30;;;3.20;;
11185;SDS011;5649;52.422;13.754;2022-11-04T01:06:31;11.90;;;4.13;;
11185;SDS011;5649;52.422;13.754;2022-11-04T01:08:58;8.80;;;3.57;;
11185;SDS011;5649;52.422;13.754;2022-11-04T01:11:24;9.80;;;4.10;;
11185;SDS011;5649;52.422;13.754;2022-11-04T01:13:54;13.60;;;4.93;;
11185;SDS011;5649;52.422;13.754;2022-11-04T01:16:20;10.23;;;4.30;;
11185;SDS011;5649;52.422;13.754;2022-11-04T01:18:46;12.70;;;4.77;;
11185;SDS011;5649;52.422;13.754;2022-11-04T01:21:13;10.00;;;4.73;;
11185;SDS011;5649;52.422;13.754;2022-11-04T01:23:40;9.30;;;4.43;;
11185;SDS011;5649;52.422;13.754;2022-11-04T01:26:16;8.97;;;3.70;;
11185;SDS011;5649;52.422;13.754;2022-11-04T01:28:43;5.23;;;3.73;;
11185;SDS011;5649;52.422;13.754;2022-11-04T01:31:10;15.40;;;4.70;;
11185;SDS011;5649;52.422;13.754;2022-11-04T01:33:36;17.33;;;3.87;;
11185;SDS011;5649;52.422;13.754;2022-11-04T01:36:03;10.93;;;4.73;;
11185;SDS011;5649;52.422;13.754;2022-11-04T01:38:29;17.87;;;4.80;;
11185;SDS011;5649;52.422;13.754;2022-11-04T01:40:56;10.60;;;3.73;;
11185;SDS011;5649;52.422;13.754;2022-11-04T01:43:23;12.60;;;4.47;;
11185;SDS011;5649;52.422;13.754;2022-11-04T01:48:25;7.87;;;4.00;;
11185;SDS011;5649;52.422;13.754;2022-11-04T01:50:51;10.83;;;4.50;;
11185;SDS011;5649;52.422;13.754;2022-11-04T01:53:22;21.80;;;4.20;;
11185;SDS011;5649;52.422;13.754;2022-11-04T01:55:51;21.60;;;4.53;;
11185;SDS011;5649;52.422;13.754;2022-11-04T01:58:19;14.83;;;4.50;;
11185;SDS011;5649;52.422;13.754;2022-11-04T02:00:47;14.63;;;4.70;;
11185;SDS011;5649;52.422;13.754;2022-11-04T02:03:15;10.60;;;4.17;;
11185;SDS011;5649;52.422;13.754;2022-11-04T02:05:41;9.30;;;4.30;;
11185;SDS011;5649;52.422;13.754;2022-11-04T02:08:08;16.43;;;5.17;;
11185;SDS011;5649;52.422;13.754;2022-11-04T02:10:36;11.03;;;4.30;;
11185;SDS011;5649;52.422;13.754;2022-11-04T02:13:04;9.30;;;3.80;;
11185;SDS011;5649;52.422;13.754;2022-11-04T02:18:05;8.67;;;4.30;;
11185;SDS011;5649;52.422;13.754;2022-11-04T02:20:40;15.47;;;4.40;;
11185;SDS011;5649;52.422;13.754;2022-11-04T02:26:15;12.33;;;4.87;;
11185;SDS011;5649;52.422;13.754;2022-11-04T02:33:51;7.43;;;4.30;;
11185;SDS011;5649;52.422;13.754;2022-11-04T02:36:26;13.70;;;5.77;;
11185;SDS011;5649;52.422;13.754;2022-11-04T02:41:38;7.97;;;4.97;;
11185;SDS011;5649;52.422;13.754;2022-11-04T02:44:12;8.43;;;4.33;;
11185;SDS011;5649;52.422;13.754;2022-11-04T02:51:52;13.30;;;4.63;;
11185;SDS011;5649;52.422;13.754;2022-11-04T02:54:24;11.20;;;4.43;;
11185;SDS011;5649;52.422;13.754;2022-11-04T02:56:53;6.63;;;3.73;;
11185;SDS011;5649;52.422;13.754;2022-11-04T03:02:10;13.87;;;5.70;;
11185;SDS011;5649;52.422;13.754;2022-11-04T03:04:39;13.33;;;5.27;;
11185;SDS011;5649;52.422;13.754;2022-11-04T03:07:07;53.00;;;4.90;;
11185;SDS011;5649;52.422;13.754;2022-11-04T03:09:35;7.40;;;4.43;;
11185;SDS011;5649;52.422;13.754;2022-11-04T03:12:04;12.53;;;4.80;;
11185;SDS011;5649;52.422;13.754;2022-11-04T03:14:36;11.73;;;3.80;;
11185;SDS011;5649;52.422;13.754;2022-11-04T03:17:05;10.67;;;4.67;;
11185;SDS011;5649;52.422;13.754;2022-11-04T03:19:37;13.10;;;4.77;;
11185;SDS011;5649;52.422;13.754;2022-11-04T03:22:12;12.70;;;5.20;;
11185;SDS011;5649;52.422;13.754;2022-11-04T03:24:39;14.73;;;5.37;;
11185;SDS011;5649;52.422;13.754;2022-11-04T03:27:26;11.33;;;5.23;;
11185;SDS011;5649;52.422;13.754;2022-11-04T03:34:57;25.53;;;5.50;;
11185;SDS011;5649;52.422;13.754;2022-11-04T03:37:23;9.00;;;3.93;;
11185;SDS011;5649;52.422;13.754;2022-11-04T03:39:49;14.80;;;4.93;;
11185;SDS011;5649;52.422;13.754;2022-11-04T03:42:15;7.57;;;4.47;;
11185;SDS011;5649;52.422;13.754;2022-11-04T03:44:46;14.17;;;4.97;;
11185;SDS011;5649;52.422;13.754;2022-11-04T03:47:13;4.30;;;3.40;;
11185;SDS011;5649;52.422;13.754;2022-11-04T03:49:39;9.43;;;5.00;;
11185;SDS011;5649;52.422;13.754;2022-11-04T03:52:05;35.53;;;4.93;;
11185;SDS011;5649;52.422;13.754;2022-11-04T03:54:31;11.30;;;5.60;;
11185;SDS011;5649;52.422;13.754;2022-11-04T04:02:27;14.37;;;4.70;;
11185;SDS011;5649;52.422;13.754;2022-11-04T04:04:58;9.43;;;4.70;;
11185;SDS011;5649;52.422;13.754;2022-11-04T04:07:32;18.93;;;4.97;;
11185;SDS011;5649;52.422;13.754;2022-11-04T04:12:48;12.63;;;5.40;;
11185;SDS011;5649;52.422;13.754;2022-11-04T04:15:20;7.37;;;4.67;;
11185;SDS011;5649;52.422;13.754;2022-11-04T04:17:49;18.97;;;6.03;;
11185;SDS011;5649;52.422;13.754;2022-11-04T04:20:20;12.53;;;5.57;;
11185;SDS011;5649;52.422;13.754;2022-11-04T04:22:49;6.70;;;4.50;;
11185;SDS011;5649;52.422;13.754;2022-11-04T04:25:15;12.77;;;5.10;;
11185;SDS011;5649;52.422;13.754;2022-11-04T04:28:00;11.10;;;4.77;;
11185;SDS011;5649;52.422;13.754;2022-11-04T04:30:27;12.17;;;5.47;;
11185;SDS011;5649;52.422;13.754;2022-11-04T04:33:02;19.07;;;5.70;;
11185;SDS011;5649;52.422;13.754;2022-11-04T04:35:32;18.50;;;4.80;;
11185;SDS011;5649;52.422;13.754;2022-11-04T04:38:19;14.33;;;5.83;;
11185;SDS011;5649;52.422;13.754;2022-11-04T04:43:52;16.53;;;5.53;;
11185;SDS011;5649;52.422;13.754;2022-11-04T04:46:36;11.50;;;4.93;;
11185;SDS011;5649;52.422;13.754;2022-11-04T04:49:07;14.70;;;5.57;;
11185;SDS011;5649;52.422;13.754;2022-11-04T04:51:33;12.63;;;5.40;;
11185;SDS011;5649;52.422;13.754;2022-11-04T04:54:00;10.20;;;4.90;;
11185;SDS011;5649;52.422;13.754;2022-11-04T04:56:26;11.37;;;4.80;;
11185;SDS011;5649;52.422;13.754;2022-11-04T04:58:52;12.87;;;5.50;;
11185;SDS011;5649;52.422;13.754;2022-11-04T05:01:19;18.53;;;5.70;;
11185;SDS011;5649;52.422;13.754;2022-11-04T05:03:44;12.10;;;4.37;;
11185;SDS011;5649;52.422;13.754;2022-11-04T05:06:10;10.47;;;5.20;;
11185;SDS011;5649;52.422;13.754;2022-11-04T05:08:36;11.97;;;5.83;;
11185;SDS011;5649;52.422;13.754;2022-11-04T05:11:02;10.27;;;5.30;;
11185;SDS011;5649;52.422;13.754;2022-11-04T05:13:28;9.53;;;5.30;;
11185;SDS011;5649;52.422;13.754;2022-11-04T05:16:04;13.47;;;5.63;;
11185;SDS011;5649;52.422;13.754;2022-11-04T05:18:31;24.60;;;5.77;;
11185;SDS011;5649;52.422;13.754;2022-11-04T05:20:57;7.43;;;4.77;;
11185;SDS011;5649;52.422;13.754;2022-11-04T05:23:23;16.80;;;5.97;;
11185;SDS011;5649;52.422;13.754;2022-11-04T05:25:49;18.47;;;5.60;;
11185;SDS011;5649;52.422;13.754;2022-11-04T05:28:15;13.20;;;5.73;;
11185;SDS011;5649;52.422;13.754;2022-11-04T05:30:41;11.37;;;5.30;;
11185;SDS011;5649;52.422;13.754;2022-11-04T05:33:07;18.57;;;4.93;;
11185;SDS011;5649;52.422;13.754;2022-11-04T05:35:33;8.50;;;5.97;;
11185;SDS011;5649;52.422;13.754;2022-11-04T05:37:59;11.50;;;5.70;;
11185;SDS011;5649;52.422;13.754;2022-11-04T05:40:25;9.10;;;5.40;;
11185;SDS011;5649;52.422;13.754;2022-11-04T05:42:51;14.73;;;4.67;;
11185;SDS011;5649;52.422;13.754;2022-11-04T05:45:17;21.03;;;6.63;;
11185;SDS011;5649;52.422;13.754;2022-11-04T05:47:43;8.90;;;4.63;;
11185;SDS011;5649;52.422;13.754;2022-11-04T05:50:09;19.87;;;6.40;;
11185;SDS011;5649;52.422;13.754;2022-11-04T05:52:35;11.40;;;6.00;;
11185;SDS011;5649;52.422;13.754;2022-11-04T05:55:01;10.77;;;6.30;;
11185;SDS011;5649;52.422;13.754;2022-11-04T05:57:27;10.90;;;4.70;;
11185;SDS011;5649;52.422;13.754;2022-11-04T05:59:53;14.17;;;6.23;;
11185;SDS011;5649;52.422;13.754;2022-11-04T06:02:19;15.90;;;5.20;;
11185;SDS011;5649;52.422;13.754;2022-11-04T06:04:45;16.40;;;6.20;;
11185;SDS011;5649;52.422;13.754;2022-11-04T06:07:11;14.00;;;6.80;;
11185;SDS011;5649;52.422;13.754;2022-11-04T06:09:37;14.23;;;5.67;;
11185;SDS011;5649;52.422;13.754;2022-11-04T06:14:32;13.50;;;7.13;;
11185;SDS011;5649;52.422;13.754;2022-11-04T06:16:58;11.93;;;6.50;;
11185;SDS011;5649;52.422;13.754;2022-11-04T06:19:26;15.97;;;5.70;;
11185;SDS011;5649;52.422;13.754;2022-11-04T06:21:52;13.70;;;6.33;;
11185;SDS011;5649;52.422;13.754;2022-11-04T06:24:18;16.27;;;5.73;;
11185;SDS011;5649;52.422;13.754;2022-11-04T06:26:44;10.47;;;5.20;;
11185;SDS011;5649;52.422;13.754;2022-11-04T06:29:10;11.27;;;5.70;;
11185;SDS011;5649;52.422;13.754;2022-11-04T06:31:36;10.80;;;5.60;;
11185;SDS011;5649;52.422;13.754;2022-11-04T06:34:03;11.03;;;5.50;;
11185;SDS011;5649;52.422;13.754;2022-11-04T06:36:29;29.23;;;5.37;;
11185;SDS011;5649;52.422;13.754;2022-11-04T06:38:55;15.63;;;7.27;;
11185;SDS011;5649;52.422;13.754;2022-11-04T06:41:21;9.37;;;5.37;;
11185;SDS011;5649;52.422;13.754;2022-11-04T06:43:47;13.90;;;5.60;;
11185;SDS011;5649;52.422;13.754;2022-11-04T06:46:35;10.80;;;5.53;;
11185;SDS011;5649;52.422;13.754;2022-11-04T06:48:59;21.77;;;6.17;;
11185;SDS011;5649;52.422;13.754;2022-11-04T06:51:25;16.13;;;7.03;;
11185;SDS011;5649;52.422;13.754;2022-11-04T06:53:51;9.70;;;5.70;;
11185;SDS011;5649;52.422;13.754;2022-11-04T06:56:17;10.30;;;5.20;;
11185;SDS011;5649;52.422;13.754;2022-11-04T06:58:47;16.83;;;6.23;;
11185;SDS011;5649;52.422;13.754;2022-11-04T07:01:13;15.33;;;6.00;;
11185;SDS011;5649;52.422;13.754;2022-11-04T07:03:39;33.70;;;7.27;;
11185;SDS011;5649;52.422;13.754;2022-11-04T07:06:06;45.77;;;6.57;;
11185;SDS011;5649;52.422;13.754;2022-11-04T07:08:32;12.90;;;5.90;;
11185;SDS011;5649;52.422;13.754;2022-11-04T07:10:58;18.80;;;6.30;;
11185;SDS011;5649;52.422;13.754;2022-11-04T07:13:24;22.83;;;6.60;;
11185;SDS011;5649;52.422;13.754;2022-11-04T07:15:50;13.70;;;6.47;;
11185;SDS011;5649;52.422;13.754;2022-11-04T07:18:16;10.70;;;5.40;;
11185;SDS011;5649;52.422;13.754;2022-11-04T07:20:42;14.00;;;6.07;;
11185;SDS011;5649;52.422;13.754;2022-11-04T07:23:08;14.30;;;6.40;;
11185;SDS011;5649;52.422;13.754;2022-11-04T07:25:34;23.10;;;6.87;;
11185;SDS011;5649;52.422;13.754;2022-11-04T07:28:00;7.50;;;4.77;;
11185;SDS011;5649;52.422;13.754;2022-11-04T07:30:26;11.50;;;6.10;;
11185;SDS011;5649;52.422;13.754;2022-11-04T07:32:52;15.10;;;6.33;;
11185;SDS011;5649;52.422;13.754;2022-11-04T07:35:18;20.00;;;7.17;;
11185;SDS011;5649;52.422;13.754;2022-11-04T07:37:44;18.33;;;6.10;;
11185;SDS011;5649;52.422;13.754;2022-11-04T07:40:10;10.67;;;5.00;;
11185;SDS011;5649;52.422;13.754;2022-11-04T07:42:36;9.13;;;5.73;;
11185;SDS011;5649;52.422;13.754;2022-11-04T07:45:03;11.90;;;6.20;;
11185;SDS011;5649;52.422;13.754;2022-11-04T07:47:29;12.47;;;5.57;;
11185;SDS011;5649;52.422;13.754;2022-11-04T07:49:55;11.47;;;6.60;;
11185;SDS011;5649;52.422;13.754;2022-11-04T07:52:22;18.00;;;8.00;;
11185;SDS011;5649;52.422;13.754;2022-11-04T07:54:48;13.57;;;6.37;;
11185;SDS011;5649;52.422;13.754;2022-11-04T07:57:14;20.40;;;7.67;;
11185;SDS011;5649;52.422;13.754;2022-11-04T07:59:40;13.27;;;6.30;;
11185;SDS011;5649;52.422;13.754;2022-11-04T08:02:06;12.00;;;5.37;;
11185;SDS011;5649;52.422;13.754;2022-11-04T08:04:32;13.33;;;6.03;;
11185;SDS011;5649;52.422;13.754;2022-11-04T08:06:58;12.00;;;5.60;;
11185;SDS011;5649;52.422;13.754;2022-11-04T08:09:24;12.43;;;5.50;;
11185;SDS011;5649;52.422;13.754;2022-11-04T08:11:50;14.43;;;5.50;;
11185;SDS011;5649;52.422;13.754;2022-11-04T08:14:16;11.70;;;5.57;;
11185;SDS011;5649;52.422;13.754;2022-11-04T08:16:41;11.87;;;6.47;;
11185;SDS011;5649;52.422;13.754;2022-11-04T08:19:08;20.03;;;5.70;;
11185;SDS011;5649;52.422;13.754;2022-11-04T08:21:34;14.70;;;5.97;;
11185;SDS011;5649;52.422;13.754;2022-11-04T08:24:00;10.50;;;5.83;;
11185;SDS011;5649;52.422;13.754;2022-11-04T08:26:28;20.83;;;6.03;;
11185;SDS011;5649;52.422;13.754;2022-11-04T08:28:54;16.17;;;7.00;;
11185;SDS011;5649;52.422;13.754;2022-11-04T08:31:27;16.83;;;5.10;;
11185;SDS011;5649;52.422;13.754;2022-11-04T08:33:54;18.63;;;5.43;;
11185;SDS011;5649;52.422;13.754;2022-11-04T08:36:24;11.43;;;6.10;;
11185;SDS011;5649;52.422;13.754;2022-11-04T08:38:51;19.53;;;6.90;;
11185;SDS011;5649;52.422;13.754;2022-11-04T08:41:17;19.40;;;7.60;;
11185;SDS011;5649;52.422;13.754;2022-11-04T08:43:44;13.10;;;7.13;;
11185;SDS011;5649;52.422;13.754;2022-11-04T08:46:10;20.00;;;7.60;;
11185;SDS011;5649;52.422;13.754;2022-11-04T08:48:37;22.63;;;6.50;;
11185;SDS011;5649;52.422;13.754;2022-11-04T08:51:03;12.63;;;5.93;;
11185;SDS011;5649;52.422;13.754;2022-11-04T08:53:29;11.40;;;6.37;;
11185;SDS011;5649;52.422;13.754;2022-11-04T08:55:55;10.33;;;5.20;;
11185;SDS011;5649;52.422;13.754;2022-11-04T08:58:21;17.93;;;5.97;;
11185;SDS011;5649;52.422;13.754;2022-11-04T09:00:48;21.67;;;5.67;;
11185;SDS011;5649;52.422;13.754;2022-11-04T09:03:14;7.93;;;4.87;;
11185;SDS011;5649;52.422;13.754;2022-11-04T09:05:41;18.20;;;5.83;;
11185;SDS011;5649;52.422;13.754;2022-11-04T09:08:13;13.80;;;5.30;;
11185;SDS011;5649;52.422;13.754;2022-11-04T09:10:40;13.07;;;6.37;;
11185;SDS011;5649;52.422;13.754;2022-11-04T09:13:09;10.30;;;5.70;;
11185;SDS011;5649;52.422;13.754;2022-11-04T09:15:35;13.83;;;5.73;;
11185;SDS011;5649;52.422;13.754;2022-11-04T09:18:02;9.37;;;5.87;;
11185;SDS011;5649;52.422;13.754;2022-11-04T09:20:28;18.07;;;5.60;;
11185;SDS011;5649;52.422;13.754;2022-11-04T09:22:55;18.33;;;5.60;;
11185;SDS011;5649;52.422;13.754;2022-11-04T09:25:21;12.23;;;5.97;;
11185;SDS011;5649;52.422;13.754;2022-11-04T09:27:47;12.20;;;6.20;;
11185;SDS011;5649;52.422;13.754;2022-11-04T09:30:14;14.03;;;5.97;;
11185;SDS011;5649;52.422;13.754;2022-11-04T09:32:40;13.33;;;4.83;;
11185;SDS011;5649;52.422;13.754;2022-11-04T09:35:06;7.50;;;4.90;;
11185;SDS011;5649;52.422;13.754;2022-11-04T09:37:32;12.90;;;5.90;;
11185;SDS011;5649;52.422;13.754;2022-11-04T09:39:59;18.77;;;6.40;;
11185;SDS011;5649;52.422;13.754;2022-11-04T09:45:04;13.13;;;5.70;;
11185;SDS011;5649;52.422;13.754;2022-11-04T09:47:34;5.93;;;4.90;;
11185;SDS011;5649;52.422;13.754;2022-11-04T09:50:01;10.47;;;4.97;;
11185;SDS011;5649;52.422;13.754;2022-11-04T09:52:29;9.20;;;5.07;;
11185;SDS011;5649;52.422;13.754;2022-11-04T09:57:41;11.03;;;5.53;;
11185;SDS011;5649;52.422;13.754;2022-11-04T10:00:14;9.13;;;4.90;;
11185;SDS011;5649;52.422;13.754;2022-11-04T10:13:07;8.53;;;5.20;;
11185;SDS011;5649;52.422;13.754;2022-11-04T10:20:44;7.73;;;4.00;;
11185;SDS011;5649;52.422;13.754;2022-11-04T10:23:32;6.67;;;4.20;;
11185;SDS011;5649;52.422;13.754;2022-11-04T10:26:05;4.27;;;3.20;;
11185;SDS011;5649;52.422;13.754;2022-11-04T10:28:41;9.17;;;4.30;;
11185;SDS011;5649;52.422;13.754;2022-11-04T10:31:14;9.30;;;4.60;;
11185;SDS011;5649;52.422;13.754;2022-11-04T10:33:54;11.73;;;4.33;;
11185;SDS011;5649;52.422;13.754;2022-11-04T10:36:21;4.20;;;3.30;;
11185;SDS011;5649;52.422;13.754;2022-11-04T10:38:52;4.87;;;3.47;;
11185;SDS011;5649;52.422;13.754;2022-11-04T10:41:23;9.80;;;3.50;;
11185;SDS011;5649;52.422;13.754;2022-11-04T10:43:51;12.63;;;4.47;;
11185;SDS011;5649;52.422;13.754;2022-11-04T10:46:22;4.70;;;3.40;;
11185;SDS011;5649;52.422;13.754;2022-11-04T10:51:16;6.83;;;2.80;;
11185;SDS011;5649;52.422;13.754;2022-11-04T10:53:57;8.80;;;4.40;;
11185;SDS011;5649;52.422;13.754;2022-11-04T11:01:55;8.93;;;2.83;;
11185;SDS011;5649;52.422;13.754;2022-11-04T11:06:50;5.37;;;3.30;;
11185;SDS011;5649;52.422;13.754;2022-11-04T11:09:18;6.03;;;3.27;;
11185;SDS011;5649;52.422;13.754;2022-11-04T11:11:47;5.07;;;2.90;;
11185;SDS011;5649;52.422;13.754;2022-11-04T11:14:17;26.70;;;3.70;;
11185;SDS011;5649;52.422;13.754;2022-11-04T11:16:45;6.83;;;3.17;;
11185;SDS011;5649;52.422;13.754;2022-11-04T11:19:13;9.30;;;3.53;;
11185;SDS011;5649;52.422;13.754;2022-11-04T11:21:47;7.03;;;3.40;;
11185;SDS011;5649;52.422;13.754;2022-11-04T11:24:15;7.43;;;3.63;;
11185;SDS011;5649;52.422;13.754;2022-11-04T11:26:43;5.23;;;2.50;;
11185;SDS011;5649;52.422;13.754;2022-11-04T11:29:26;3.30;;;2.77;;
11185;SDS011;5649;52.422;13.754;2022-11-04T11:31:53;8.23;;;3.50;;
11185;SDS011;5649;52.422;13.754;2022-11-04T11:34:27;6.63;;;3.20;;
11185;SDS011;5649;52.422;13.754;2022-11-04T11:36:54;4.63;;;2.77;;
11185;SDS011;5649;52.422;13.754;2022-11-04T11:39:30;6.03;;;2.97;;
11185;SDS011;5649;52.422;13.754;2022-11-04T11:41:58;7.97;;;3.40;;
11185;SDS011;5649;52.422;13.754;2022-11-04T11:46:56;10.17;;;3.50;;
11185;SDS011;5649;52.422;13.754;2022-11-04T11:49:30;6.07;;;3.90;;
11185;SDS011;5649;52.422;13.754;2022-11-04T11:52:40;6.80;;;4.10;;
11185;SDS011;5649;52.422;13.754;2022-11-04T11:54:47;5.87;;;4.23;;
11185;SDS011;5649;52.422;13.754;2022-11-04T11:57:22;7.10;;;3.50;;
11185;SDS011;5649;52.422;13.754;2022-11-04T11:59:52;9.20;;;3.40;;
11185;SDS011;5649;52.422;13.754;2022-11-04T12:02:31;10.33;;;3.47;;
11185;SDS011;5649;52.422;13.754;2022-11-04T12:04:59;14.60;;;5.10;;
11185;SDS011;5649;52.422;13.754;2022-11-04T12:12:36;18.00;;;3.60;;
11185;SDS011;5649;52.422;13.754;2022-11-04T12:22:49;5.47;;;3.03;;
11185;SDS011;5649;52.422;13.754;2022-11-04T12:28:23;5.53;;;3.80;;
11185;SDS011;5649;52.422;13.754;2022-11-04T12:30:59;8.00;;;3.87;;
11185;SDS011;5649;52.422;13.754;2022-11-04T12:33:34;9.00;;;3.80;;
11185;SDS011;5649;52.422;13.754;2022-11-04T12:38:56;10.00;;;5.60;;
11185;SDS011;5649;52.422;13.754;2022-11-04T12:41:41;8.17;;;4.37;;
11185;SDS011;5649;52.422;13.754;2022-11-04T12:44:25;13.57;;;4.10;;
11185;SDS011;5649;52.422;13.754;2022-11-04T12:46:59;6.53;;;4.17;;
11185;SDS011;5649;52.422;13.754;2022-11-04T12:57:49;6.90;;;3.83;;
11185;SDS011;5649;52.422;13.754;2022-11-04T13:00:17;10.23;;;3.53;;
11185;SDS011;5649;52.422;13.754;2022-11-04T13:02:48;5.13;;;4.47;;
11185;SDS011;5649;52.422;13.754;2022-11-04T13:05:26;8.53;;;4.20;;
11185;SDS011;5649;52.422;13.754;2022-11-04T13:07:55;12.67;;;4.80;;
11185;SDS011;5649;52.422;13.754;2022-11-04T13:11:07;5.47;;;3.20;;
11185;SDS011;5649;52.422;13.754;2022-11-04T13:13:11;6.47;;;4.37;;
11185;SDS011;5649;52.422;13.754;2022-11-04T13:15:43;9.77;;;4.77;;
11185;SDS011;5649;52.422;13.754;2022-11-04T13:18:11;13.13;;;4.23;;
11185;SDS011;5649;52.422;13.754;2022-11-04T13:20:41;5.90;;;3.60;;
11185;SDS011;5649;52.422;13.754;2022-11-04T13:23:11;3.90;;;3.57;;
11185;SDS011;5649;52.422;13.754;2022-11-04T13:25:39;7.57;;;4.10;;
11185;SDS011;5649;52.422;13.754;2022-11-04T13:28:13;4.40;;;3.40;;
11185;SDS011;5649;52.422;13.754;2022-11-04T13:33:27;7.23;;;4.07;;
11185;SDS011;5649;52.422;13.754;2022-11-04T13:35:59;7.30;;;3.90;;
11185;SDS011;5649;52.422;13.754;2022-11-04T13:43:33;9.30;;;4.90;;
11185;SDS011;5649;52.422;13.754;2022-11-04T13:48:35;11.43;;;4.50;;
11185;SDS011;5649;52.422;13.754;2022-11-04T13:51:08;10.55;;;5.30;;
11185;SDS011;5649;52.422;13.754;2022-11-04T13:58:55;5.67;;;4.23;;
11185;SDS011;5649;52.422;13.754;2022-11-04T14:03:49;10.13;;;3.93;;
11185;SDS011;5649;52.422;13.754;2022-11-04T14:06:17;11.17;;;5.10;;
11185;SDS011;5649;52.422;13.754;2022-11-04T14:12:15;6.40;;;4.00;;
11185;SDS011;5649;52.422;13.754;2022-11-04T14:14:33;15.10;;;5.60;;
11185;SDS011;5649;52.422;13.754;2022-11-04T14:17:00;14.67;;;5.47;;
11185;SDS011;5649;52.422;13.754;2022-11-04T14:22:13;7.40;;;4.63;;
11185;SDS011;5649;52.422;13.754;2022-11-04T14:24:40;14.67;;;5.83;;
11185;SDS011;5649;52.422;13.754;2022-11-04T14:27:18;9.80;;;5.00;;
11185;SDS011;5649;52.422;13.754;2022-11-04T14:29:48;7.47;;;5.20;;
11185;SDS011;5649;52.422;13.754;2022-11-04T14:32:17;15.43;;;4.73;;
11185;SDS011;5649;52.422;13.754;2022-11-04T14:34:48;7.07;;;5.23;;
11185;SDS011;5649;52.422;13.754;2022-11-04T14:37:22;19.10;;;5.43;;
11185;SDS011;5649;52.422;13.754;2022-11-04T14:39:58;6.13;;;4.83;;
11185;SDS011;5649;52.422;13.754;2022-11-04T14:45:16;9.93;;;5.10;;
11185;SDS011;5649;52.422;13.754;2022-11-04T14:47:45;9.00;;;4.53;;
11185;SDS011;5649;52.422;13.754;2022-11-04T14:50:15;6.77;;;4.80;;
11185;SDS011;5649;52.422;13.754;2022-11-04T14:57:38;10.03;;;5.53;;
11185;SDS011;5649;52.422;13.754;2022-11-04T15:05:30;19.53;;;4.77;;
11185;SDS011;5649;52.422;13.754;2022-11-04T15:10:48;11.57;;;6.40;;
11185;SDS011;5649;52.422;13.754;2022-11-04T15:13:17;10.43;;;4.90;;
11185;SDS011;5649;52.422;13.754;2022-11-04T15:15:43;11.53;;;6.10;;
11185;SDS011;5649;52.422;13.754;2022-11-04T15:18:15;8.53;;;4.80;;
11185;SDS011;5649;52.422;13.754;2022-11-04T15:20:48;9.67;;;5.27;;
11185;SDS011;5649;52.422;13.754;2022-11-04T15:23:17;9.67;;;6.17;;
11185;SDS011;5649;52.422;13.754;2022-11-04T15:25:46;5.87;;;4.17;;
11185;SDS011;5649;52.422;13.754;2022-11-04T15:28:16;9.60;;;5.10;;
11185;SDS011;5649;52.422;13.754;2022-11-04T15:30:43;13.43;;;5.73;;
11185;SDS011;5649;52.422;13.754;2022-11-04T15:33:21;16.00;;;6.60;;
11185;SDS011;5649;52.422;13.754;2022-11-04T15:35:49;8.40;;;5.80;;
11185;SDS011;5649;52.422;13.754;2022-11-04T15:38:16;12.07;;;5.97;;
11185;SDS011;5649;52.422;13.754;2022-11-04T15:40:42;6.83;;;5.60;;
11185;SDS011;5649;52.422;13.754;2022-11-04T15:43:08;9.57;;;5.37;;
11185;SDS011;5649;52.422;13.754;2022-11-04T15:45:51;10.73;;;5.57;;
11185;SDS011;5649;52.422;13.754;2022-11-04T15:48:25;18.20;;;5.60;;
11185;SDS011;5649;52.422;13.754;2022-11-04T15:50:57;15.33;;;5.47;;
11185;SDS011;5649;52.422;13.754;2022-11-04T15:53:27;11.63;;;6.20;;
11185;SDS011;5649;52.422;13.754;2022-11-04T15:55:53;9.43;;;5.90;;
11185;SDS011;5649;52.422;13.754;2022-11-04T15:58:19;12.90;;;5.20;;
11185;SDS011;5649;52.422;13.754;2022-11-04T16:00:52;8.43;;;6.40;;
11185;SDS011;5649;52.422;13.754;2022-11-04T16:03:19;10.57;;;5.87;;
11185;SDS011;5649;52.422;13.754;2022-11-04T16:06:06;9.07;;;5.40;;
11185;SDS011;5649;52.422;13.754;2022-11-04T16:08:32;12.70;;;5.60;;
11185;SDS011;5649;52.422;13.754;2022-11-04T16:13:34;11.63;;;5.27;;
11185;SDS011;5649;52.422;13.754;2022-11-04T16:20:56;8.67;;;5.40;;
11185;SDS011;5649;52.422;13.754;2022-11-04T16:23:24;7.57;;;5.47;;
11185;SDS011;5649;52.422;13.754;2022-11-04T16:26:02;6.40;;;4.87;;
11185;SDS011;5649;52.422;13.754;2022-11-04T16:28:30;8.97;;;5.10;;
11185;SDS011;5649;52.422;13.754;2022-11-04T16:30:59;8.23;;;5.67;;
11185;SDS011;5649;52.422;13.754;2022-11-04T16:33:25;7.53;;;5.37;;
11185;SDS011;5649;52.422;13.754;2022-11-04T16:35:51;11.77;;;5.80;;
11185;SDS011;5649;52.422;13.754;2022-11-04T16:38:17;7.47;;;5.70;;
11185;SDS011;5649;52.422;13.754;2022-11-04T16:40:45;11.53;;;7.50;;
11185;SDS011;5649;52.422;13.754;2022-11-04T16:43:12;15.00;;;6.67;;
11185;SDS011;5649;52.422;13.754;2022-11-04T16:45:38;10.13;;;6.37;;
11185;SDS011;5649;52.422;13.754;2022-11-04T16:48:05;10.27;;;6.47;;
11185;SDS011;5649;52.422;13.754;2022-11-04T16:50:32;9.70;;;5.87;;
11185;SDS011;5649;52.422;13.754;2022-11-04T16:52:58;9.53;;;6.57;;
11185;SDS011;5649;52.422;13.754;2022-11-04T16:55:24;9.40;;;6.40;;
11185;SDS011;5649;52.422;13.754;2022-11-04T16:57:55;11.27;;;6.60;;
11185;SDS011;5649;52.422;13.754;2022-11-04T17:00:23;10.57;;;6.63;;
11185;SDS011;5649;52.422;13.754;2022-11-04T17:02:50;10.87;;;6.60;;
11185;SDS011;5649;52.422;13.754;2022-11-04T17:05:16;14.90;;;7.53;;
11185;SDS011;5649;52.422;13.754;2022-11-04T17:07:42;13.70;;;6.80;;
11185;SDS011;5649;52.422;13.754;2022-11-04T17:10:16;7.83;;;5.97;;
11185;SDS011;5649;52.422;13.754;2022-11-04T17:12:43;11.90;;;6.27;;
11185;SDS011;5649;52.422;13.754;2022-11-04T17:15:09;12.17;;;7.13;;
11185;SDS011;5649;52.422;13.754;2022-11-04T17:17:35;9.13;;;6.17;;
11185;SDS011;5649;52.422;13.754;2022-11-04T17:20:01;12.70;;;6.70;;